createdAt,value
2017-02-05T08:08:50.939Z,99.99
2017-02-05T08:09:31.362Z,99.99
2017-02-05T08:10:11.874Z,99.99
2017-02-05T08:10:52.382Z,99.99
2017-02-05T08:11:32.889Z,99.99
2017-02-05T08:12:13.382Z,99.99
2017-02-05T08:12:53.915Z,99.99
2017-02-05T08:13:34.631Z,99.99
2017-02-05T08:14:14.974Z,99.99
2017-02-05T08:14:55.505Z,99.99
2017-02-05T08:15:36.010Z,99.99
2017-02-05T08:16:16.505Z,99.99
2017-02-05T08:16:57.141Z,99.99
2017-02-05T08:17:37.519Z,99.99
2017-02-05T08:18:18.010Z,99.99
2017-02-05T08:18:58.567Z,99.99
2017-02-05T08:19:39.037Z,99.99
2017-02-05T08:20:19.539Z,99.99
2017-02-05T08:21:00.050Z,99.99
2017-02-05T08:21:40.605Z,99.99
2017-02-05T08:22:21.099Z,99.99
2017-02-05T08:23:01.617Z,99.99
2017-02-05T08:23:42.167Z,99.99
2017-02-05T08:24:22.680Z,99.99
2017-02-05T08:25:03.197Z,99.99
2017-02-05T08:25:43.707Z,99.99
2017-02-05T08:26:24.215Z,99.99
2017-02-05T08:27:04.722Z,99.99
2017-02-05T08:27:45.212Z,99.99
2017-02-05T08:28:25.730Z,99.99
2017-02-05T08:29:06.276Z,99.99
2017-02-05T08:29:46.785Z,99.99
2017-02-05T08:30:27.300Z,99.99
2017-02-05T08:31:07.828Z,99.99
2017-02-05T08:31:48.351Z,99.99
2017-02-05T08:32:28.849Z,99.99
2017-02-05T08:33:09.371Z,99.99
2017-02-05T08:33:49.892Z,99.99
2017-02-05T08:34:30.427Z,99.99
2017-02-05T08:35:10.980Z,99.99
2017-02-05T08:35:51.521Z,99.99
2017-02-05T08:36:32.041Z,99.99
2017-02-05T08:37:12.506Z,99.99
2017-02-05T08:37:54.267Z,99.99
2017-02-05T08:38:33.616Z,99.99
2017-02-05T08:39:14.119Z,99.99
2017-02-05T08:39:54.649Z,99.99
2017-02-05T08:40:35.119Z,99.99
2017-02-05T08:41:15.617Z,99.99
2017-02-05T08:41:56.131Z,99.99
2017-02-05T08:42:36.619Z,99.99
2017-02-05T08:43:17.141Z,99.99
2017-02-05T08:43:57.716Z,99.99
2017-02-05T08:44:38.222Z,99.99
2017-02-05T08:45:18.743Z,99.99
2017-02-05T08:45:59.257Z,99.99
2017-02-05T08:46:39.748Z,99.99
2017-02-05T08:47:20.280Z,99.99
2017-02-05T08:48:00.777Z,99.99
2017-02-05T08:48:41.269Z,99.99
2017-02-05T08:49:21.784Z,99.99
2017-02-05T08:50:02.287Z,99.99
2017-02-05T08:50:42.778Z,99.99
2017-02-05T08:51:23.272Z,99.99
2017-02-05T08:52:03.781Z,99.99
2017-02-05T08:52:44.299Z,99.99
2017-02-05T08:53:24.814Z,99.99
2017-02-05T08:54:05.324Z,99.99
2017-02-05T08:54:45.838Z,99.99
2017-02-05T08:55:26.338Z,99.99
2017-02-05T08:56:06.858Z,99.99
2017-02-05T08:56:47.382Z,99.99
2017-02-05T08:57:27.865Z,99.99
2017-02-05T08:58:08.392Z,99.99
2017-02-05T08:58:48.936Z,99.99
2017-02-05T08:59:29.434Z,99.99
2017-02-05T09:00:09.939Z,99.99
2017-02-05T09:00:50.462Z,99.99
2017-02-05T09:01:31.030Z,99.99
2017-02-05T09:02:11.553Z,99.99
2017-02-05T09:02:52.066Z,99.99
2017-02-05T09:03:32.582Z,99.99
2017-02-05T09:04:13.089Z,99.99
2017-02-05T09:04:53.588Z,99.99
2017-02-05T09:05:35.020Z,99.99
2017-02-05T09:06:15.559Z,99.99
2017-02-05T09:06:56.237Z,99.99
2017-02-05T09:07:36.697Z,99.99
2017-02-05T09:08:17.204Z,99.99
2017-02-05T09:08:57.724Z,99.87
2017-02-05T09:09:38.224Z,99.49
2017-02-05T09:10:18.733Z,99.97
2017-02-05T09:10:59.388Z,99.99
2017-02-05T09:11:39.854Z,99.3
2017-02-05T09:12:20.378Z,99.3
2017-02-05T09:13:00.878Z,99.16
2017-02-05T09:13:41.394Z,99.26
2017-02-05T09:14:21.917Z,99.54
2017-02-05T09:15:02.439Z,98.3
2017-02-05T09:15:42.960Z,98.59
2017-02-05T09:16:23.467Z,99.35
2017-02-05T09:17:03.979Z,99.44
2017-02-05T09:17:44.474Z,99.49
2017-02-05T09:18:26.043Z,99.68
2017-02-05T09:19:06.544Z,99.68
2017-02-05T09:19:47.040Z,98.45
2017-02-05T09:20:27.574Z,98.64
2017-02-05T09:21:08.050Z,98.31
2017-02-05T09:21:48.563Z,98.79
2017-02-05T09:22:29.048Z,97.92
2017-02-05T09:23:09.528Z,97.17
2017-02-05T09:23:50.039Z,97.17
2017-02-05T09:24:30.580Z,97.17
2017-02-05T09:25:11.081Z,97.17
2017-02-05T09:25:51.601Z,96.69
2017-02-05T09:26:32.120Z,96.5
2017-02-05T09:27:12.613Z,96.88
2017-02-05T09:27:53.157Z,96.88
2017-02-05T09:28:34.771Z,97.07
2017-02-05T09:29:15.258Z,95.84
2017-02-05T09:29:55.757Z,96.31
2017-02-05T09:30:36.277Z,95.94
2017-02-05T09:31:16.774Z,96.12
2017-02-05T09:31:57.288Z,95.55
2017-02-05T09:32:38.248Z,95.36
2017-02-05T09:33:18.764Z,95.98
2017-02-05T09:33:59.288Z,95.89
2017-02-05T09:34:39.781Z,95.7
2017-02-05T09:35:20.298Z,95.22
2017-02-05T09:36:00.791Z,94.65
2017-02-05T09:36:41.318Z,94.32
2017-02-05T09:37:22.315Z,94.03
2017-02-05T09:38:02.813Z,93.37
2017-02-05T09:38:43.324Z,92.61
2017-02-05T09:39:23.835Z,92.32
2017-02-05T09:40:04.400Z,92.94
2017-02-05T09:40:44.963Z,93.04
2017-02-05T09:41:25.451Z,92.36
2017-02-05T09:42:05.959Z,92.13
2017-02-05T09:42:46.476Z,91.56
2017-02-05T09:43:27.016Z,91.75
2017-02-05T09:44:07.491Z,90.89
2017-02-05T09:44:48.022Z,90.7
2017-02-05T09:45:28.535Z,89.27
2017-02-05T09:46:09.045Z,89.03
2017-02-05T09:46:49.564Z,88.89
2017-02-05T09:47:30.081Z,87.85
2017-02-05T09:48:10.604Z,88.23
2017-02-05T09:48:51.111Z,87.94
2017-02-05T09:49:31.609Z,87.99
2017-02-05T09:50:12.199Z,88.66
2017-02-05T09:50:52.677Z,88.85
2017-02-05T09:51:33.172Z,89.51
2017-02-05T09:52:13.686Z,89.8
2017-02-05T09:52:54.184Z,89.99
2017-02-05T09:53:34.682Z,90.18
2017-02-05T09:54:15.289Z,89.7
2017-02-05T09:54:55.829Z,89.32
2017-02-05T09:55:36.361Z,89.61
2017-02-05T09:56:16.884Z,90.32
2017-02-05T09:56:57.394Z,89.94
2017-02-05T09:57:37.906Z,90.03
2017-02-05T09:58:18.429Z,88.42
2017-02-05T09:58:58.945Z,87.85
2017-02-05T09:59:39.466Z,88.42
2017-02-05T10:00:19.984Z,88.6
2017-02-05T10:01:00.925Z,88.32
2017-02-05T10:01:41.448Z,88.23
2017-02-05T10:02:21.973Z,88.56
2017-02-05T10:03:02.479Z,88.27
2017-02-05T10:03:42.989Z,88.27
2017-02-05T10:04:23.488Z,88.12
2017-02-05T10:05:04.023Z,88.03
2017-02-05T10:05:44.536Z,87.93
2017-02-05T10:06:25.064Z,87.17
2017-02-05T10:07:05.569Z,87.5
2017-02-05T10:07:46.070Z,86.83
2017-02-05T10:08:26.588Z,86.07
2017-02-05T10:09:07.108Z,85.69
2017-02-05T10:09:47.609Z,85.97
2017-02-05T10:10:28.131Z,84.03
2017-02-05T10:11:08.652Z,83.55
2017-02-05T10:11:49.160Z,83.55
2017-02-05T10:12:29.670Z,83.36
2017-02-05T10:13:10.193Z,83.55
2017-02-05T10:13:50.709Z,82.37
2017-02-05T10:14:31.227Z,82.93
2017-02-05T10:15:11.722Z,82.75
2017-02-05T10:15:52.236Z,83.03
2017-02-05T10:16:32.747Z,83.03
2017-02-05T10:17:13.279Z,82.56
2017-02-05T10:17:53.806Z,82.46
2017-02-05T10:18:34.318Z,82.93
2017-02-05T10:19:14.830Z,83.03
2017-02-05T10:19:55.339Z,82.84
2017-02-05T10:20:35.882Z,82.65
2017-02-05T10:21:16.385Z,82.18
2017-02-05T10:21:57.617Z,82.27
2017-02-05T10:22:38.111Z,82.75
2017-02-05T10:23:18.689Z,82.18
2017-02-05T10:23:59.178Z,82.37
2017-02-05T10:24:39.712Z,82.69
2017-02-05T10:25:20.233Z,82.79
2017-02-05T10:26:00.787Z,82.41
2017-02-05T10:26:41.539Z,82.31
2017-02-05T10:27:22.057Z,82.21
2017-02-05T10:28:02.578Z,80.69
2017-02-05T10:28:43.097Z,80.98
2017-02-05T10:29:23.604Z,81.46
2017-02-05T10:30:04.101Z,81.55
2017-02-05T10:30:44.615Z,81.93
2017-02-05T10:31:25.681Z,82.12
2017-02-05T10:32:06.231Z,81.36
2017-02-05T10:32:46.771Z,80.5
2017-02-05T10:33:28.343Z,80.22
2017-02-05T10:34:08.856Z,80.88
2017-02-05T10:34:49.386Z,80.98
2017-02-05T10:35:29.892Z,80.31
2017-02-05T10:36:10.403Z,79.93
2017-02-05T10:36:50.926Z,80.22
2017-02-05T10:37:31.462Z,80.79
2017-02-05T10:38:12.038Z,80.5
2017-02-05T10:38:52.529Z,79.74
2017-02-05T10:39:33.089Z,79.46
2017-02-05T10:40:13.592Z,79.32
2017-02-05T10:40:54.101Z,79.7
2017-02-05T10:41:34.899Z,79.6
2017-02-05T10:42:15.699Z,79.51
2017-02-05T10:42:56.241Z,80.27
2017-02-05T10:43:37.246Z,79.6
2017-02-05T10:44:17.891Z,79.36
2017-02-05T10:44:58.403Z,79.22
2017-02-05T10:45:38.915Z,79.51
2017-02-05T10:46:19.569Z,80.31
2017-02-05T10:47:00.084Z,79.83
2017-02-05T10:47:40.750Z,79.83
2017-02-05T10:48:22.202Z,79.27
2017-02-05T10:49:02.722Z,78.5
2017-02-05T10:49:44.243Z,78.41
2017-02-05T10:50:24.807Z,78.41
2017-02-05T10:51:05.379Z,78.22
2017-02-05T10:51:45.900Z,78.41
2017-02-05T10:52:26.444Z,78.73
2017-02-05T10:53:07.156Z,78.73
2017-02-05T10:53:47.667Z,77.87
2017-02-05T10:54:28.199Z,77.4
2017-02-05T10:55:08.771Z,77.69
2017-02-05T10:55:49.595Z,78.35
2017-02-05T10:56:30.487Z,78.25
2017-02-05T10:57:11.028Z,77.87
2017-02-05T10:57:51.521Z,78.16
2017-02-05T10:58:32.121Z,77.4
2017-02-05T10:59:12.650Z,77.49
2017-02-05T10:59:53.199Z,77.93
2017-02-05T11:00:33.749Z,78.03
2017-02-05T11:01:14.276Z,78.03
2017-02-05T11:01:54.805Z,77.36
2017-02-05T11:02:36.250Z,77.74
2017-02-05T11:03:16.761Z,77.98
2017-02-05T11:03:58.070Z,78.56
2017-02-05T11:04:38.636Z,78.9
2017-02-05T11:05:19.180Z,79.47
2017-02-05T11:05:59.713Z,80.13
2017-02-05T11:06:40.265Z,80.23
2017-02-05T11:07:20.813Z,80.52
2017-02-05T11:08:01.326Z,80.8
2017-02-05T11:08:41.837Z,81.52
2017-02-05T11:09:22.360Z,81.24
2017-02-05T11:10:02.875Z,82.09
2017-02-05T11:10:43.390Z,82.09
2017-02-05T11:11:23.933Z,82.28
2017-02-05T11:12:04.458Z,82.86
2017-02-05T11:12:44.975Z,82.95
2017-02-05T11:13:25.500Z,82.76
2017-02-05T11:14:06.026Z,83.42
2017-02-05T11:14:46.673Z,83.42
2017-02-05T11:15:27.211Z,83.62
2017-02-05T11:16:07.731Z,83.14
2017-02-05T11:16:48.270Z,83.42
2017-02-05T11:17:28.803Z,83.33
2017-02-05T11:18:09.387Z,83.33
2017-02-05T11:18:49.903Z,83.33
2017-02-05T11:19:30.456Z,83.42
2017-02-05T11:20:11.132Z,83.9
2017-02-05T11:20:51.586Z,84.13
2017-02-05T11:21:32.119Z,83.28
2017-02-05T11:22:12.644Z,83.37
2017-02-05T11:22:53.180Z,82.99
2017-02-05T11:23:33.706Z,82.61
2017-02-05T11:24:14.248Z,82.51
2017-02-05T11:24:54.770Z,82.14
2017-02-05T11:25:35.300Z,82.61
2017-02-05T11:26:15.827Z,82.99
2017-02-05T11:26:56.334Z,82.99
2017-02-05T11:27:36.865Z,81.76
2017-02-05T11:28:17.422Z,81.47
2017-02-05T11:30:16.535Z,82.42
2017-02-05T11:30:57.032Z,82.42
2017-02-05T11:31:37.529Z,82.99
2017-02-05T11:32:18.039Z,83.09
2017-02-05T11:32:58.618Z,82.84
2017-02-05T11:33:39.122Z,82.8
2017-02-05T11:34:19.654Z,82.04
2017-02-05T11:35:00.205Z,82.14
2017-02-05T11:35:40.714Z,82.14
2017-02-05T11:36:21.219Z,82.04
2017-02-05T11:37:01.770Z,81.76
2017-02-05T11:37:42.292Z,82.32
2017-02-05T11:38:22.779Z,82.19
2017-02-05T11:39:03.294Z,82.61
2017-02-05T11:39:43.809Z,82.9
2017-02-05T11:40:24.550Z,83.28
2017-02-05T11:41:05.057Z,82.8
2017-02-05T11:41:45.607Z,82.42
2017-02-05T11:42:26.132Z,82.42
2017-02-05T11:43:06.651Z,83.09
2017-02-05T11:43:47.288Z,83.37
2017-02-05T11:44:27.745Z,83.28
2017-02-05T11:45:08.269Z,83.37
2017-02-05T11:45:49.018Z,82.61
2017-02-05T11:46:29.735Z,82.9
2017-02-05T11:47:10.760Z,83.47
2017-02-05T11:47:51.283Z,83.56
2017-02-05T11:48:31.850Z,83.41
2017-02-05T11:49:12.600Z,82.75
2017-02-05T11:49:54.852Z,83.09
2017-02-05T11:50:35.227Z,82.61
2017-02-05T11:51:15.702Z,82.65
2017-02-05T11:51:56.207Z,81.85
2017-02-05T11:52:36.896Z,82.46
2017-02-05T11:53:17.393Z,82.56
2017-02-05T11:53:57.907Z,82.04
2017-02-05T11:54:38.435Z,82.18
2017-02-05T11:55:19.047Z,82.99
2017-02-05T11:55:59.532Z,82.84
2017-02-05T11:56:40.065Z,82.84
2017-02-05T11:57:20.629Z,83.13
2017-02-05T11:58:01.114Z,82.75
2017-02-05T11:58:41.640Z,82.23
2017-02-05T11:59:22.168Z,82.14
2017-02-05T12:00:02.689Z,82.61
2017-02-05T12:00:43.296Z,82.9
2017-02-05T12:01:23.776Z,82.8
2017-02-05T12:02:04.281Z,83.09
2017-02-05T12:02:44.843Z,82.42
2017-02-05T12:03:25.883Z,82.51
2017-02-05T12:04:06.464Z,82.04
2017-02-05T12:04:46.927Z,82.9
2017-02-05T12:05:27.417Z,82.61
2017-02-05T12:06:07.912Z,82.32
2017-02-05T12:06:48.465Z,82.23
2017-02-05T12:07:28.968Z,82.51
2017-02-05T12:08:09.479Z,82.04
2017-02-05T12:08:49.995Z,82.99
2017-02-05T12:09:30.503Z,82.61
2017-02-05T12:10:11.034Z,83.47
2017-02-05T12:10:52.099Z,82.99
2017-02-05T12:11:32.589Z,83.47
2017-02-05T12:12:13.129Z,83.28
2017-02-05T12:12:53.638Z,83.28
2017-02-05T12:13:34.340Z,83.18
2017-02-05T12:14:14.844Z,84.33
2017-02-05T12:14:55.367Z,83.85
2017-02-05T12:15:35.872Z,83.47
2017-02-05T12:16:16.387Z,82.61
2017-02-05T12:16:56.900Z,82.23
2017-02-05T12:17:37.423Z,82.42
2017-02-05T12:18:17.925Z,82.32
2017-02-05T12:18:58.434Z,82.8
2017-02-05T12:19:38.945Z,82.8
2017-02-05T12:20:19.470Z,82.9
2017-02-05T12:21:00.002Z,82.8
2017-02-05T12:21:40.490Z,82.61
2017-02-05T12:22:21.009Z,82.14
2017-02-05T12:23:01.516Z,82.51
2017-02-05T12:23:42.025Z,82.42
2017-02-05T12:24:22.562Z,83.09
2017-02-05T12:25:03.087Z,82.99
2017-02-05T12:25:43.611Z,82.9
2017-02-05T12:26:24.133Z,83.09
2017-02-05T12:27:04.633Z,83.09
2017-02-05T12:27:45.192Z,82.9
2017-02-05T12:28:26.673Z,83.18
2017-02-05T12:29:07.185Z,83.23
2017-02-05T12:29:47.685Z,83.9
2017-02-05T12:30:28.401Z,84
2017-02-05T12:31:08.914Z,84.28
2017-02-05T12:31:49.428Z,84.38
2017-02-05T12:32:29.956Z,84.76
2017-02-05T12:33:10.485Z,84.95
2017-02-05T12:33:51.004Z,84.19
2017-02-05T12:34:31.508Z,84.19
2017-02-05T12:35:12.012Z,84
2017-02-05T12:35:52.514Z,84.28
2017-02-05T12:36:33.044Z,84.19
2017-02-05T12:37:13.586Z,84.76
2017-02-05T12:37:54.113Z,85.24
2017-02-05T12:38:34.607Z,85.14
2017-02-05T12:39:15.113Z,84.95
2017-02-05T12:39:55.623Z,84.47
2017-02-05T12:40:36.159Z,84.76
2017-02-05T12:41:16.663Z,85.14
2017-02-05T12:41:57.181Z,85.14
2017-02-05T12:42:37.668Z,85.52
2017-02-05T12:43:18.170Z,85.71
2017-02-05T12:43:58.682Z,85.71
2017-02-05T12:44:39.199Z,85.52
2017-02-05T12:45:19.693Z,85.33
2017-02-05T12:46:00.201Z,85.61
2017-02-05T12:46:40.702Z,85.14
2017-02-05T12:47:21.208Z,85.24
2017-02-05T12:48:01.734Z,85.52
2017-02-05T12:48:42.224Z,85.14
2017-02-05T12:49:22.722Z,84.91
2017-02-05T12:50:03.229Z,84.52
2017-02-05T12:50:43.761Z,84.72
2017-02-05T12:51:24.279Z,84.91
2017-02-05T12:52:04.771Z,84.95
2017-02-05T12:52:45.281Z,84.72
2017-02-05T12:53:25.778Z,85
2017-02-05T12:54:06.271Z,85
2017-02-05T12:54:46.790Z,84.91
2017-02-05T12:55:27.289Z,85
2017-02-05T12:56:07.839Z,85.19
2017-02-05T12:56:48.327Z,84.95
2017-02-05T12:57:28.820Z,84.95
2017-02-05T12:58:09.323Z,85.1
2017-02-05T12:58:49.835Z,84.52
2017-02-05T12:59:30.352Z,84.76
2017-02-05T13:00:10.863Z,84.62
2017-02-05T13:00:51.376Z,84.56
2017-02-05T13:01:31.870Z,83.86
2017-02-05T13:02:12.373Z,84.05
2017-02-05T13:02:52.900Z,84.14
2017-02-05T13:03:33.404Z,84
2017-02-05T13:04:13.919Z,84.14
2017-02-05T13:04:54.426Z,84.24
2017-02-05T13:05:34.930Z,83.76
2017-02-05T13:06:15.467Z,84.43
2017-02-05T13:06:55.972Z,83.95
2017-02-05T13:07:36.496Z,83.95
2017-02-05T13:08:17.002Z,83.67
2017-02-05T13:08:57.517Z,83.58
2017-02-05T13:09:38.018Z,84.05
2017-02-05T13:10:18.521Z,83.9
2017-02-05T13:10:59.010Z,84.05
2017-02-05T13:11:39.513Z,84
2017-02-05T13:12:20.035Z,84.33
2017-02-05T13:13:00.539Z,84.14
2017-02-05T13:13:41.033Z,84.52
2017-02-05T13:14:21.548Z,84.14
2017-02-05T13:15:02.091Z,84.09
2017-02-05T13:15:42.561Z,85.38
2017-02-05T13:16:23.068Z,85.33
2017-02-05T13:17:03.594Z,85.14
2017-02-05T13:17:44.133Z,85.14
2017-02-05T13:18:24.633Z,84.38
2017-02-05T13:19:05.167Z,84.76
2017-02-05T13:19:45.686Z,84.09
2017-02-05T13:20:26.188Z,84.95
2017-02-05T13:21:06.708Z,85.24
2017-02-05T13:21:47.203Z,85.24
2017-02-05T13:22:27.715Z,84.95
2017-02-05T13:23:08.232Z,85.24
2017-02-05T13:23:48.743Z,85.1
2017-02-05T13:24:29.251Z,85.57
2017-02-05T13:25:09.772Z,85.57
2017-02-05T13:25:50.277Z,85.47
2017-02-05T13:26:30.790Z,85.28
2017-02-05T13:27:11.312Z,85.57
2017-02-05T13:27:51.807Z,85.66
2017-02-05T13:28:32.313Z,85.52
2017-02-05T13:29:12.830Z,85.95
2017-02-05T13:29:53.361Z,86.38
2017-02-05T13:30:33.863Z,85.9
2017-02-05T13:31:14.378Z,86.09
2017-02-05T13:31:54.890Z,85.61
2017-02-05T13:32:35.412Z,85.99
2017-02-05T13:33:15.927Z,85.9
2017-02-05T13:33:56.427Z,85.71
2017-02-05T13:34:36.938Z,85.71
2017-02-05T13:35:17.445Z,86.28
2017-02-05T13:35:57.948Z,86.47
2017-02-05T13:36:38.464Z,86.09
2017-02-05T13:37:18.955Z,86.28
2017-02-05T13:37:59.468Z,86.94
2017-02-05T13:38:40.034Z,85.99
2017-02-05T13:39:20.562Z,85.52
2017-02-05T13:40:01.080Z,85.9
2017-02-05T13:40:41.596Z,86.18
2017-02-05T13:41:22.102Z,86.85
2017-02-05T13:42:02.623Z,86.47
2017-02-05T13:42:43.147Z,86.94
2017-02-05T13:43:23.655Z,87.04
2017-02-05T13:44:04.165Z,87.52
2017-02-05T13:44:44.672Z,87.13
2017-02-05T13:45:25.180Z,87.42
2017-02-05T13:46:05.686Z,86.66
2017-02-05T13:46:46.211Z,86.66
2017-02-05T13:47:26.736Z,87.04
2017-02-05T13:48:07.231Z,86.85
2017-02-05T13:48:47.751Z,87.13
2017-02-05T13:49:28.258Z,86.85
2017-02-05T13:50:08.780Z,87.13
2017-02-05T13:50:49.296Z,86.57
2017-02-05T13:51:29.823Z,87.23
2017-02-05T13:52:10.325Z,86.47
2017-02-05T13:52:50.837Z,86.85
2017-02-05T13:53:31.355Z,86.57
2017-02-05T13:54:11.871Z,86.66
2017-02-05T13:54:52.392Z,87.04
2017-02-05T13:55:32.905Z,87.04
2017-02-05T13:56:13.410Z,86.85
2017-02-05T13:56:53.935Z,86.85
2017-02-05T13:57:34.452Z,86.85
2017-02-05T13:58:14.964Z,86.38
2017-02-05T13:58:55.474Z,87.32
2017-02-05T13:59:35.965Z,86.99
2017-02-05T14:00:16.487Z,87.65
2017-02-05T14:00:56.985Z,86.38
2017-02-05T14:01:37.496Z,87.13
2017-02-05T14:02:18.006Z,87.37
2017-02-05T14:02:58.492Z,87.04
2017-02-05T14:03:39.011Z,87.37
2017-02-05T14:04:19.512Z,87.46
2017-02-05T14:05:00.018Z,87.85
2017-02-05T14:05:40.538Z,88.04
2017-02-05T14:06:21.042Z,87.8
2017-02-05T14:07:01.548Z,88.18
2017-02-05T14:07:42.052Z,87.8
2017-02-05T14:08:22.587Z,88.28
2017-02-05T14:09:03.101Z,88.37
2017-02-05T14:09:43.609Z,88.46
2017-02-05T14:10:24.117Z,88.37
2017-02-05T14:11:04.622Z,88.56
2017-02-05T14:11:45.134Z,88.56
2017-02-05T14:12:25.651Z,88.37
2017-02-05T14:13:06.159Z,88.37
2017-02-05T14:13:46.667Z,87.9
2017-02-05T14:14:27.173Z,87.99
2017-02-05T14:15:07.682Z,88.75
2017-02-05T14:15:48.199Z,88.94
2017-02-05T14:16:28.722Z,88.94
2017-02-05T14:17:09.239Z,88.94
2017-02-05T14:17:49.729Z,88.85
2017-02-05T14:18:30.251Z,88.75
2017-02-05T14:19:10.771Z,88.85
2017-02-05T14:19:51.265Z,89.23
2017-02-05T14:20:31.791Z,89.51
2017-02-05T14:21:12.302Z,89.42
2017-02-05T14:21:52.821Z,89.42
2017-02-05T14:22:33.328Z,89.89
2017-02-05T14:23:13.819Z,89.51
2017-02-05T14:23:54.327Z,89.51
2017-02-05T14:24:34.830Z,89.42
2017-02-05T14:25:15.348Z,89.51
2017-02-05T14:25:55.869Z,89.89
2017-02-05T14:26:36.377Z,89.04
2017-02-05T14:27:16.852Z,89.61
2017-02-05T14:27:57.363Z,89.51
2017-02-05T14:28:37.873Z,89.32
2017-02-05T14:29:18.404Z,89.51
2017-02-05T14:29:58.895Z,89.99
2017-02-05T14:30:39.431Z,89.7
2017-02-05T14:31:19.920Z,89.7
2017-02-05T14:32:00.472Z,89.51
2017-02-05T14:32:40.974Z,89.7
2017-02-05T14:33:21.478Z,89.7
2017-02-05T14:34:02.002Z,89.42
2017-02-05T14:34:42.516Z,89.7
2017-02-05T14:35:23.002Z,89.8
2017-02-05T14:36:03.509Z,89.51
2017-02-05T14:36:43.983Z,90.28
2017-02-05T14:37:24.479Z,89.51
2017-02-05T14:38:04.983Z,89.61
2017-02-05T14:38:45.503Z,90.37
2017-02-05T14:39:26.010Z,90.47
2017-02-05T14:40:06.554Z,90.28
2017-02-05T14:40:47.044Z,89.89
2017-02-05T14:41:27.560Z,89.89
2017-02-05T14:42:08.058Z,89.61
2017-02-05T14:42:48.580Z,89.8
2017-02-05T14:43:29.089Z,89.7
2017-02-05T14:44:09.592Z,89.7
2017-02-05T14:44:50.104Z,89.32
2017-02-05T14:45:30.592Z,89.89
2017-02-05T14:46:11.099Z,89.51
2017-02-05T14:46:51.623Z,90.37
2017-02-05T14:47:32.130Z,90.37
2017-02-05T14:48:12.644Z,89.51
2017-02-05T14:48:53.143Z,90.37
2017-02-05T14:49:33.653Z,90.37
2017-02-05T14:50:14.157Z,90.04
2017-02-05T14:50:54.667Z,90.28
2017-02-05T14:51:35.176Z,90.23
2017-02-05T14:52:15.718Z,90.14
2017-02-05T14:52:56.214Z,89.85
2017-02-05T14:53:36.721Z,89.8
2017-02-05T14:54:17.245Z,90.84
2017-02-05T14:54:57.749Z,89.47
2017-02-05T14:55:38.264Z,90.7
2017-02-05T14:56:18.763Z,90.52
2017-02-05T14:56:59.280Z,90.52
2017-02-05T14:57:39.794Z,90.61
2017-02-05T14:58:20.294Z,90.42
2017-02-05T14:59:00.815Z,90.89
2017-02-05T14:59:41.310Z,90.8
2017-02-05T15:00:21.805Z,90.99
2017-02-05T15:01:02.315Z,90.89
2017-02-05T15:01:42.857Z,90.8
2017-02-05T15:02:23.373Z,90.89
2017-02-05T15:03:03.896Z,90.7
2017-02-05T15:03:44.424Z,90.89
2017-02-05T15:04:24.936Z,90.61
2017-02-05T15:05:05.434Z,90.52
2017-02-05T15:05:45.943Z,90.52
2017-02-05T15:06:26.448Z,90.61
2017-02-05T15:07:06.955Z,90.23
2017-02-05T15:07:47.470Z,90.61
2017-02-05T15:08:27.968Z,90.61
2017-02-05T15:09:08.484Z,90.61
2017-02-05T15:09:48.993Z,90.8
2017-02-05T15:10:29.505Z,91.08
2017-02-05T15:11:10.021Z,90.52
2017-02-05T15:11:50.534Z,90.42
2017-02-05T15:12:31.050Z,90.52
2017-02-05T15:13:11.560Z,90.52
2017-02-05T15:13:52.078Z,90.23
2017-02-05T15:14:32.593Z,90.23
2017-02-05T15:15:13.108Z,90.61
2017-02-05T15:15:53.627Z,91.18
2017-02-05T15:16:34.124Z,90.7
2017-02-05T15:17:14.639Z,91.56
2017-02-05T15:17:55.143Z,91.18
2017-02-05T15:18:35.665Z,91.08
2017-02-05T15:19:16.177Z,91.08
2017-02-05T15:19:56.685Z,91.37
2017-02-05T15:20:37.200Z,91.18
2017-02-05T15:21:17.703Z,91.47
2017-02-05T15:21:58.210Z,91.47
2017-02-05T15:22:38.726Z,91.47
2017-02-05T15:23:19.227Z,90.8
2017-02-05T15:23:59.779Z,91.08
2017-02-05T15:24:40.293Z,90.99
2017-02-05T15:25:20.792Z,91.37
2017-02-05T15:26:01.317Z,91.37
2017-02-05T15:26:41.825Z,91.56
2017-02-05T15:27:22.333Z,91.85
2017-02-05T15:28:02.836Z,91.75
2017-02-05T15:28:43.339Z,91.18
2017-02-05T15:29:23.852Z,91.37
2017-02-05T15:30:04.339Z,91.08
2017-02-05T15:30:44.858Z,91.85
2017-02-05T15:31:25.377Z,91.47
2017-02-05T15:32:05.876Z,91.75
2017-02-05T15:32:46.387Z,91.56
2017-02-05T15:33:26.902Z,91.47
2017-02-05T15:34:07.396Z,91.75
2017-02-05T15:34:47.910Z,91.47
2017-02-05T15:35:28.418Z,91.47
2017-02-05T15:36:08.919Z,91.56
2017-02-05T15:36:49.429Z,91.75
2017-02-05T15:37:29.955Z,91.47
2017-02-05T15:38:10.455Z,91.37
2017-02-05T15:38:50.994Z,91.56
2017-02-05T15:39:31.513Z,91.37
2017-02-05T15:40:12.045Z,91.66
2017-02-05T15:40:52.548Z,92.27
2017-02-05T15:41:33.052Z,92.22
2017-02-05T15:42:13.572Z,91.85
2017-02-05T15:42:54.089Z,92.08
2017-02-05T15:43:34.604Z,91.8
2017-02-05T15:44:15.101Z,92.03
2017-02-05T15:44:55.609Z,91.99
2017-02-05T15:45:36.115Z,92.22
2017-02-05T15:46:16.616Z,92.08
2017-02-05T15:46:57.249Z,91.99
2017-02-05T15:47:37.745Z,91.8
2017-02-05T15:48:18.260Z,92.37
2017-02-05T15:48:58.757Z,92.37
2017-02-05T15:49:39.288Z,92.46
2017-02-05T15:50:19.839Z,92.18
2017-02-05T15:51:00.359Z,92.18
2017-02-05T15:51:40.866Z,92.18
2017-02-05T15:52:21.382Z,92.27
2017-02-05T15:53:01.879Z,92.37
2017-02-05T15:53:42.393Z,92.08
2017-02-05T15:54:22.893Z,92.18
2017-02-05T15:55:03.381Z,92.27
2017-02-05T15:55:43.915Z,92.27
2017-02-05T15:56:24.418Z,92.18
2017-02-05T15:57:04.931Z,92.37
2017-02-05T15:57:45.433Z,92.27
2017-02-05T15:58:25.951Z,92.56
2017-02-05T15:59:06.465Z,92.37
2017-02-05T15:59:46.987Z,92.46
2017-02-05T16:00:27.572Z,92.18
2017-02-05T16:01:08.036Z,92.08
2017-02-05T16:01:48.567Z,92.46
2017-02-05T16:02:29.058Z,92.46
2017-02-05T16:03:09.567Z,92.37
2017-02-05T16:03:50.098Z,92.46
2017-02-05T16:04:30.598Z,92.37
2017-02-05T16:05:11.120Z,92.46
2017-02-05T16:05:51.640Z,92.37
2017-02-05T16:06:32.153Z,93.23
2017-02-05T16:07:12.659Z,92.27
2017-02-05T16:07:53.167Z,92.37
2017-02-05T16:08:33.690Z,92.37
2017-02-05T16:09:14.204Z,92.56
2017-02-05T16:09:54.711Z,93.04
2017-02-05T16:10:35.214Z,92.94
2017-02-05T16:11:15.734Z,92.85
2017-02-05T16:11:56.250Z,92.94
2017-02-05T16:12:36.755Z,92.27
2017-02-05T16:13:17.271Z,92.85
2017-02-05T16:13:57.793Z,92.94
2017-02-05T16:14:38.310Z,92.56
2017-02-05T16:15:18.815Z,92.37
2017-02-05T16:15:59.339Z,92.37
2017-02-05T16:16:39.857Z,92.94
2017-02-05T16:17:20.387Z,92.27
2017-02-05T16:18:00.868Z,92.27
2017-02-05T16:18:41.384Z,92.27
2017-02-05T16:19:21.886Z,91.99
2017-02-05T16:20:02.412Z,93.41
2017-02-05T16:20:42.937Z,93.6
2017-02-05T16:21:23.448Z,92.46
2017-02-05T16:22:03.959Z,92.18
2017-02-05T16:22:44.459Z,93.41
2017-02-05T16:23:24.974Z,93.51
2017-02-05T16:24:05.499Z,93.6
2017-02-05T16:24:45.998Z,93.41
2017-02-05T16:25:26.509Z,93.32
2017-02-05T16:26:07.027Z,92.27
2017-02-05T16:26:47.530Z,92.27
2017-02-05T16:27:28.047Z,92.08
2017-02-05T16:28:08.561Z,92.37
2017-02-05T16:28:49.090Z,92.37
2017-02-05T16:29:29.600Z,92.46
2017-02-05T16:30:10.120Z,93.41
2017-02-05T16:30:50.639Z,93.6
2017-02-05T16:31:31.142Z,93.51
2017-02-05T16:32:11.650Z,92.27
2017-02-05T16:32:52.173Z,92.37
2017-02-05T16:33:32.694Z,92.04
2017-02-05T16:34:13.214Z,93.56
2017-02-05T16:34:53.730Z,92.27
2017-02-05T16:35:34.246Z,93.6
2017-02-05T16:36:14.759Z,93.37
2017-02-05T16:36:55.262Z,93.37
2017-02-05T16:37:35.769Z,93.37
2017-02-05T16:38:16.280Z,92.23
2017-02-05T16:38:56.773Z,92.23
2017-02-05T16:39:37.296Z,92.32
2017-02-05T16:40:17.794Z,92.42
2017-02-05T16:40:58.319Z,92.32
2017-02-05T16:41:38.837Z,92.23
2017-02-05T16:42:19.377Z,93.37
2017-02-05T16:42:59.900Z,93.27
2017-02-05T16:43:40.403Z,93.46
2017-02-05T16:44:20.918Z,93.46
2017-02-05T16:45:01.462Z,92.99
2017-02-05T16:45:41.961Z,93.37
2017-02-05T16:46:22.481Z,93.65
2017-02-05T16:47:03.010Z,93.18
2017-02-05T16:47:43.538Z,93.37
2017-02-05T16:48:24.036Z,93.65
2017-02-05T16:49:04.553Z,93.27
2017-02-05T16:49:45.064Z,93.27
2017-02-05T16:50:25.590Z,93.27
2017-02-05T16:51:06.097Z,93.56
2017-02-05T16:51:46.604Z,93.37
2017-02-05T16:52:27.085Z,93.84
2017-02-05T16:53:07.606Z,93.37
2017-02-05T16:53:48.116Z,93.27